sensor_id;sensor_type;location;lat;lon;timestamp;P1;durP1;ratioP1;P2;durP2;ratioP2
26082;SDS011;13848;49.018;12.078;2022-12-18T00:00:41;49.55;;;18.58;;
26082;SDS011;13848;49.018;12.078;2022-12-18T00:03:08;42.83;;;17.52;;
26082;SDS011;13848;49.018;12.078;2022-12-18T00:05:34;51.17;;;18.50;;
26082;SDS011;13848;49.018;12.078;2022-12-18T00:08:01;48.10;;;18.17;;
26082;SDS011;13848;49.018;12.078;2022-12-18T00:10:28;50.85;;;17.98;;
26082;SDS011;13848;49.018;12.078;2022-12-18T00:12:54;47.08;;;18.08;;
26082;SDS011;13848;49.018;12.078;2022-12-18T00:15:20;51.05;;;18.73;;
26082;SDS011;13848;49.018;12.078;2022-12-18T00:17:46;52.30;;;19.25;;
26082;SDS011;13848;49.018;12.078;2022-12-18T00:20:12;48.53;;;17.70;;
26082;SDS011;13848;49.018;12.078;2022-12-18T00:22:38;54.72;;;18.88;;
26082;SDS011;13848;49.018;12.078;2022-12-18T00:25:05;44.35;;;17.63;;
26082;SDS011;13848;49.018;12.078;2022-12-18T00:27:32;52.28;;;18.15;;
26082;SDS011;13848;49.018;12.078;2022-12-18T00:29:58;51.42;;;18.92;;
26082;SDS011;13848;49.018;12.078;2022-12-18T00:32:24;54.47;;;18.38;;
26082;SDS011;13848;49.018;12.078;2022-12-18T00:34:49;44.70;;;18.35;;
26082;SDS011;13848;49.018;12.078;2022-12-18T00:37:15;47.30;;;15.85;;
26082;SDS011;13848;49.018;12.078;2022-12-18T00:39:41;46.85;;;16.17;;
26082;SDS011;13848;49.018;12.078;2022-12-18T00:42:09;43.45;;;16.63;;
26082;SDS011;13848;49.018;12.078;2022-12-18T00:44:36;46.65;;;16.70;;
26082;SDS011;13848;49.018;12.078;2022-12-18T00:47:01;54.33;;;18.08;;
26082;SDS011;13848;49.018;12.078;2022-12-18T00:49:27;45.28;;;17.85;;
26082;SDS011;13848;49.018;12.078;2022-12-18T00:51:55;47.20;;;17.42;;
26082;SDS011;13848;49.018;12.078;2022-12-18T00:54:21;48.95;;;17.67;;
26082;SDS011;13848;49.018;12.078;2022-12-18T00:56:47;42.70;;;16.10;;
26082;SDS011;13848;49.018;12.078;2022-12-18T00:59:14;44.65;;;17.33;;
26082;SDS011;13848;49.018;12.078;2022-12-18T01:01:40;45.28;;;16.88;;
26082;SDS011;13848;49.018;12.078;2022-12-18T01:04:06;50.58;;;17.90;;
26082;SDS011;13848;49.018;12.078;2022-12-18T01:06:32;44.78;;;16.60;;
26082;SDS011;13848;49.018;12.078;2022-12-18T01:08:58;43.40;;;16.75;;
26082;SDS011;13848;49.018;12.078;2022-12-18T01:11:24;46.28;;;17.10;;
26082;SDS011;13848;49.018;12.078;2022-12-18T01:13:51;41.33;;;16.73;;
26082;SDS011;13848;49.018;12.078;2022-12-18T01:16:19;43.40;;;16.27;;
26082;SDS011;13848;49.018;12.078;2022-12-18T01:18:45;45.00;;;16.45;;
26082;SDS011;13848;49.018;12.078;2022-12-18T01:21:12;41.25;;;16.48;;
26082;SDS011;13848;49.018;12.078;2022-12-18T01:23:39;39.35;;;15.30;;
26082;SDS011;13848;49.018;12.078;2022-12-18T01:26:06;49.97;;;18.15;;
26082;SDS011;13848;49.018;12.078;2022-12-18T01:28:32;42.75;;;15.82;;
26082;SDS011;13848;49.018;12.078;2022-12-18T01:31:08;39.40;;;15.35;;
26082;SDS011;13848;49.018;12.078;2022-12-18T01:33:40;43.17;;;15.60;;
26082;SDS011;13848;49.018;12.078;2022-12-18T01:36:06;42.40;;;16.30;;
26082;SDS011;13848;49.018;12.078;2022-12-18T01:38:32;48.95;;;16.73;;
26082;SDS011;13848;49.018;12.078;2022-12-18T01:40:58;40.85;;;15.95;;
26082;SDS011;13848;49.018;12.078;2022-12-18T01:46:09;42.33;;;16.27;;
26082;SDS011;13848;49.018;12.078;2022-12-18T01:48:35;40.53;;;15.93;;
26082;SDS011;13848;49.018;12.078;2022-12-18T01:51:03;44.97;;;16.20;;
26082;SDS011;13848;49.018;12.078;2022-12-18T01:53:31;44.97;;;15.52;;
26082;SDS011;13848;49.018;12.078;2022-12-18T01:55:57;42.53;;;15.52;;
26082;SDS011;13848;49.018;12.078;2022-12-18T01:58:28;47.75;;;16.85;;
26082;SDS011;13848;49.018;12.078;2022-12-18T02:00:59;40.42;;;16.10;;
26082;SDS011;13848;49.018;12.078;2022-12-18T02:03:25;42.80;;;15.82;;
26082;SDS011;13848;49.018;12.078;2022-12-18T02:05:53;41.95;;;15.40;;
26082;SDS011;13848;49.018;12.078;2022-12-18T02:08:29;42.75;;;16.13;;
26082;SDS011;13848;49.018;12.078;2022-12-18T02:11:01;46.60;;;17.40;;
26082;SDS011;13848;49.018;12.078;2022-12-18T02:13:36;47.95;;;17.67;;
26082;SDS011;13848;49.018;12.078;2022-12-18T02:16:08;51.15;;;18.20;;
26082;SDS011;13848;49.018;12.078;2022-12-18T02:18:43;54.55;;;19.30;;
26082;SDS011;13848;49.018;12.078;2022-12-18T02:21:15;52.88;;;18.27;;
26082;SDS011;13848;49.018;12.078;2022-12-18T02:23:52;50.20;;;17.80;;
26082;SDS011;13848;49.018;12.078;2022-12-18T02:26:30;60.83;;;19.08;;
26082;SDS011;13848;49.018;12.078;2022-12-18T02:29:02;47.38;;;18.15;;
26082;SDS011;13848;49.018;12.078;2022-12-18T02:31:35;51.70;;;17.77;;
26082;SDS011;13848;49.018;12.078;2022-12-18T02:34:04;52.85;;;17.27;;
26082;SDS011;13848;49.018;12.078;2022-12-18T02:36:33;44.75;;;17.60;;
26082;SDS011;13848;49.018;12.078;2022-12-18T02:39:02;52.35;;;17.63;;
26082;SDS011;13848;49.018;12.078;2022-12-18T02:41:32;49.90;;;17.77;;
26082;SDS011;13848;49.018;12.078;2022-12-18T02:44:00;49.80;;;17.63;;
26082;SDS011;13848;49.018;12.078;2022-12-18T02:46:29;45.38;;;16.73;;
26082;SDS011;13848;49.018;12.078;2022-12-18T02:49:01;41.10;;;16.17;;
26082;SDS011;13848;49.018;12.078;2022-12-18T02:51:36;40.63;;;16.05;;
26082;SDS011;13848;49.018;12.078;2022-12-18T02:54:09;40.33;;;14.32;;
26082;SDS011;13848;49.018;12.078;2022-12-18T02:56:42;39.42;;;15.10;;
26082;SDS011;13848;49.018;12.078;2022-12-18T02:59:15;33.13;;;13.20;;
26082;SDS011;13848;49.018;12.078;2022-12-18T03:01:46;30.70;;;13.10;;
26082;SDS011;13848;49.018;12.078;2022-12-18T03:04:18;37.55;;;14.02;;
26082;SDS011;13848;49.018;12.078;2022-12-18T03:06:48;35.87;;;13.13;;
26082;SDS011;13848;49.018;12.078;2022-12-18T03:09:19;33.65;;;13.70;;
26082;SDS011;13848;49.018;12.078;2022-12-18T03:11:51;33.30;;;12.68;;
26082;SDS011;13848;49.018;12.078;2022-12-18T03:14:20;35.83;;;13.60;;
26082;SDS011;13848;49.018;12.078;2022-12-18T03:16:49;35.72;;;13.90;;
26082;SDS011;13848;49.018;12.078;2022-12-18T03:19:19;38.38;;;15.02;;
26082;SDS011;13848;49.018;12.078;2022-12-18T03:21:49;35.50;;;14.10;;
26082;SDS011;13848;49.018;12.078;2022-12-18T03:24:19;37.08;;;13.93;;
26082;SDS011;13848;49.018;12.078;2022-12-18T03:26:50;37.90;;;14.75;;
26082;SDS011;13848;49.018;12.078;2022-12-18T03:29:21;36.38;;;13.20;;
26082;SDS011;13848;49.018;12.078;2022-12-18T03:31:51;34.92;;;13.20;;
26082;SDS011;13848;49.018;12.078;2022-12-18T03:34:21;38.00;;;12.98;;
26082;SDS011;13848;49.018;12.078;2022-12-18T03:36:50;38.40;;;13.90;;
26082;SDS011;13848;49.018;12.078;2022-12-18T03:39:16;40.47;;;14.18;;
26082;SDS011;13848;49.018;12.078;2022-12-18T03:41:43;40.65;;;15.82;;
26082;SDS011;13848;49.018;12.078;2022-12-18T03:44:17;42.63;;;15.50;;
26082;SDS011;13848;49.018;12.078;2022-12-18T03:46:52;38.45;;;15.02;;
26082;SDS011;13848;49.018;12.078;2022-12-18T03:49:25;42.15;;;14.82;;
26082;SDS011;13848;49.018;12.078;2022-12-18T03:51:59;37.40;;;14.88;;
26082;SDS011;13848;49.018;12.078;2022-12-18T03:54:28;37.08;;;14.80;;
26082;SDS011;13848;49.018;12.078;2022-12-18T03:56:58;38.20;;;14.80;;
26082;SDS011;13848;49.018;12.078;2022-12-18T03:59:31;32.53;;;13.15;;
26082;SDS011;13848;49.018;12.078;2022-12-18T04:02:00;37.08;;;13.88;;
26082;SDS011;13848;49.018;12.078;2022-12-18T04:04:27;33.65;;;13.43;;
26082;SDS011;13848;49.018;12.078;2022-12-18T04:06:54;36.35;;;14.02;;
26082;SDS011;13848;49.018;12.078;2022-12-18T04:09:21;33.70;;;13.35;;
26082;SDS011;13848;49.018;12.078;2022-12-18T04:11:48;35.67;;;13.65;;
26082;SDS011;13848;49.018;12.078;2022-12-18T04:14:14;38.95;;;13.95;;
26082;SDS011;13848;49.018;12.078;2022-12-18T04:16:42;34.67;;;13.88;;
26082;SDS011;13848;49.018;12.078;2022-12-18T04:19:08;30.55;;;13.63;;
26082;SDS011;13848;49.018;12.078;2022-12-18T04:21:34;33.70;;;14.32;;
26082;SDS011;13848;49.018;12.078;2022-12-18T04:24:00;33.25;;;14.40;;
26082;SDS011;13848;49.018;12.078;2022-12-18T04:26:26;36.92;;;14.05;;
26082;SDS011;13848;49.018;12.078;2022-12-18T04:28:52;36.80;;;14.00;;
26082;SDS011;13848;49.018;12.078;2022-12-18T04:31:18;35.90;;;13.60;;
26082;SDS011;13848;49.018;12.078;2022-12-18T04:33:45;34.60;;;12.68;;
26082;SDS011;13848;49.018;12.078;2022-12-18T04:36:11;38.38;;;14.38;;
26082;SDS011;13848;49.018;12.078;2022-12-18T04:38:37;42.47;;;13.65;;
26082;SDS011;13848;49.018;12.078;2022-12-18T04:41:03;38.40;;;14.57;;
26082;SDS011;13848;49.018;12.078;2022-12-18T04:43:29;34.53;;;13.77;;
26082;SDS011;13848;49.018;12.078;2022-12-18T04:46:00;32.88;;;12.85;;
26082;SDS011;13848;49.018;12.078;2022-12-18T04:48:27;34.55;;;13.52;;
26082;SDS011;13848;49.018;12.078;2022-12-18T04:50:54;32.25;;;12.32;;
26082;SDS011;13848;49.018;12.078;2022-12-18T04:53:20;37.20;;;12.93;;
26082;SDS011;13848;49.018;12.078;2022-12-18T04:55:46;35.42;;;13.43;;
26082;SDS011;13848;49.018;12.078;2022-12-18T04:58:12;36.80;;;12.77;;
26082;SDS011;13848;49.018;12.078;2022-12-18T05:00:38;28.50;;;12.85;;
26082;SDS011;13848;49.018;12.078;2022-12-18T05:03:04;31.23;;;13.48;;
26082;SDS011;13848;49.018;12.078;2022-12-18T05:05:30;32.38;;;12.20;;
26082;SDS011;13848;49.018;12.078;2022-12-18T05:07:57;27.33;;;11.65;;
26082;SDS011;13848;49.018;12.078;2022-12-18T05:10:23;31.02;;;12.07;;
26082;SDS011;13848;49.018;12.078;2022-12-18T05:12:49;26.10;;;10.88;;
26082;SDS011;13848;49.018;12.078;2022-12-18T05:15:15;31.98;;;10.80;;
26082;SDS011;13848;49.018;12.078;2022-12-18T05:17:42;31.50;;;12.25;;
26082;SDS011;13848;49.018;12.078;2022-12-18T05:20:09;30.20;;;11.77;;
26082;SDS011;13848;49.018;12.078;2022-12-18T05:22:35;33.50;;;11.77;;
26082;SDS011;13848;49.018;12.078;2022-12-18T05:25:02;28.13;;;11.18;;
26082;SDS011;13848;49.018;12.078;2022-12-18T05:27:29;27.23;;;11.02;;
26082;SDS011;13848;49.018;12.078;2022-12-18T05:29:55;31.67;;;11.73;;
26082;SDS011;13848;49.018;12.078;2022-12-18T05:32:21;34.30;;;12.02;;
26082;SDS011;13848;49.018;12.078;2022-12-18T05:34:47;33.83;;;13.13;;
26082;SDS011;13848;49.018;12.078;2022-12-18T05:37:12;31.88;;;11.68;;
26082;SDS011;13848;49.018;12.078;2022-12-18T05:39:38;33.90;;;12.32;;
26082;SDS011;13848;49.018;12.078;2022-12-18T05:42:06;37.80;;;13.93;;
26082;SDS011;13848;49.018;12.078;2022-12-18T05:44:32;37.17;;;13.27;;
26082;SDS011;13848;49.018;12.078;2022-12-18T05:46:58;32.15;;;12.60;;
26082;SDS011;13848;49.018;12.078;2022-12-18T05:49:24;31.35;;;11.98;;
26082;SDS011;13848;49.018;12.078;2022-12-18T05:51:50;30.60;;;11.27;;
26082;SDS011;13848;49.018;12.078;2022-12-18T05:54:16;32.10;;;11.82;;
26082;SDS011;13848;49.018;12.078;2022-12-18T05:56:42;30.70;;;11.50;;
26082;SDS011;13848;49.018;12.078;2022-12-18T05:59:09;34.10;;;12.50;;
26082;SDS011;13848;49.018;12.078;2022-12-18T06:01:35;32.97;;;12.38;;
26082;SDS011;13848;49.018;12.078;2022-12-18T06:04:01;29.90;;;12.05;;
26082;SDS011;13848;49.018;12.078;2022-12-18T06:06:27;33.65;;;12.98;;
26082;SDS011;13848;49.018;12.078;2022-12-18T06:08:54;34.97;;;12.77;;
26082;SDS011;13848;49.018;12.078;2022-12-18T06:11:21;30.83;;;12.05;;
26082;SDS011;13848;49.018;12.078;2022-12-18T06:13:49;32.70;;;12.30;;
26082;SDS011;13848;49.018;12.078;2022-12-18T06:16:17;38.70;;;13.02;;
26082;SDS011;13848;49.018;12.078;2022-12-18T06:18:43;33.80;;;12.07;;
26082;SDS011;13848;49.018;12.078;2022-12-18T06:21:09;33.90;;;12.18;;
26082;SDS011;13848;49.018;12.078;2022-12-18T06:23:35;30.30;;;12.13;;
26082;SDS011;13848;49.018;12.078;2022-12-18T06:26:03;33.45;;;11.88;;
26082;SDS011;13848;49.018;12.078;2022-12-18T06:28:30;37.53;;;12.95;;
26082;SDS011;13848;49.018;12.078;2022-12-18T06:30:56;39.00;;;13.63;;
26082;SDS011;13848;49.018;12.078;2022-12-18T06:33:25;29.52;;;12.07;;
26082;SDS011;13848;49.018;12.078;2022-12-18T06:35:52;39.10;;;12.63;;
26082;SDS011;13848;49.018;12.078;2022-12-18T06:38:18;33.45;;;12.57;;
26082;SDS011;13848;49.018;12.078;2022-12-18T06:40:44;36.50;;;12.60;;
26082;SDS011;13848;49.018;12.078;2022-12-18T06:43:10;37.13;;;13.48;;
26082;SDS011;13848;49.018;12.078;2022-12-18T06:45:36;33.40;;;12.98;;
26082;SDS011;13848;49.018;12.078;2022-12-18T06:48:01;43.63;;;13.35;;
26082;SDS011;13848;49.018;12.078;2022-12-18T06:50:29;35.97;;;12.35;;
26082;SDS011;13848;49.018;12.078;2022-12-18T06:52:55;44.78;;;13.88;;
26082;SDS011;13848;49.018;12.078;2022-12-18T06:55:21;36.95;;;13.38;;
26082;SDS011;13848;49.018;12.078;2022-12-18T06:57:47;39.40;;;12.93;;
26082;SDS011;13848;49.018;12.078;2022-12-18T07:00:13;42.30;;;13.77;;
26082;SDS011;13848;49.018;12.078;2022-12-18T07:02:40;38.55;;;13.80;;
26082;SDS011;13848;49.018;12.078;2022-12-18T07:05:06;42.90;;;14.30;;
26082;SDS011;13848;49.018;12.078;2022-12-18T07:07:34;39.22;;;13.65;;
26082;SDS011;13848;49.018;12.078;2022-12-18T07:10:00;40.03;;;13.48;;
26082;SDS011;13848;49.018;12.078;2022-12-18T07:12:26;42.42;;;12.52;;
26082;SDS011;13848;49.018;12.078;2022-12-18T07:14:52;39.95;;;13.25;;
26082;SDS011;13848;49.018;12.078;2022-12-18T07:17:18;36.00;;;13.73;;
26082;SDS011;13848;49.018;12.078;2022-12-18T07:19:44;38.78;;;14.35;;
26082;SDS011;13848;49.018;12.078;2022-12-18T07:22:10;42.55;;;13.57;;
26082;SDS011;13848;49.018;12.078;2022-12-18T07:24:37;39.38;;;14.00;;
26082;SDS011;13848;49.018;12.078;2022-12-18T07:27:03;36.03;;;13.25;;
26082;SDS011;13848;49.018;12.078;2022-12-18T07:29:29;37.60;;;13.23;;
26082;SDS011;13848;49.018;12.078;2022-12-18T07:31:55;44.65;;;15.00;;
26082;SDS011;13848;49.018;12.078;2022-12-18T07:34:21;40.20;;;14.50;;
26082;SDS011;13848;49.018;12.078;2022-12-18T07:36:47;35.47;;;13.70;;
26082;SDS011;13848;49.018;12.078;2022-12-18T07:39:13;41.47;;;14.13;;
26082;SDS011;13848;49.018;12.078;2022-12-18T07:41:41;35.05;;;13.07;;
26082;SDS011;13848;49.018;12.078;2022-12-18T07:44:08;37.60;;;14.05;;
26082;SDS011;13848;49.018;12.078;2022-12-18T07:46:34;45.90;;;15.30;;
26082;SDS011;13848;49.018;12.078;2022-12-18T07:49:00;43.58;;;13.98;;
26082;SDS011;13848;49.018;12.078;2022-12-18T07:51:26;44.45;;;15.07;;
26082;SDS011;13848;49.018;12.078;2022-12-18T07:53:52;41.78;;;13.48;;
26082;SDS011;13848;49.018;12.078;2022-12-18T07:56:18;40.03;;;13.30;;
26082;SDS011;13848;49.018;12.078;2022-12-18T07:58:49;39.70;;;14.82;;
26082;SDS011;13848;49.018;12.078;2022-12-18T08:01:15;45.33;;;14.95;;
26082;SDS011;13848;49.018;12.078;2022-12-18T08:03:41;38.90;;;13.75;;
26082;SDS011;13848;49.018;12.078;2022-12-18T08:06:08;40.90;;;15.00;;
26082;SDS011;13848;49.018;12.078;2022-12-18T08:08:35;43.50;;;15.48;;
26082;SDS011;13848;49.018;12.078;2022-12-18T08:11:01;42.58;;;14.40;;
26082;SDS011;13848;49.018;12.078;2022-12-18T08:13:27;42.22;;;14.88;;
26082;SDS011;13848;49.018;12.078;2022-12-18T08:15:58;43.55;;;16.30;;
26082;SDS011;13848;49.018;12.078;2022-12-18T08:18:27;44.83;;;14.98;;
26082;SDS011;13848;49.018;12.078;2022-12-18T08:20:54;44.30;;;15.40;;
26082;SDS011;13848;49.018;12.078;2022-12-18T08:23:20;47.47;;;14.98;;
26082;SDS011;13848;49.018;12.078;2022-12-18T08:25:47;41.65;;;15.73;;
26082;SDS011;13848;49.018;12.078;2022-12-18T08:28:13;44.33;;;14.02;;
26082;SDS011;13848;49.018;12.078;2022-12-18T08:30:39;39.65;;;14.35;;
26082;SDS011;13848;49.018;12.078;2022-12-18T08:33:06;33.05;;;12.60;;
26082;SDS011;13848;49.018;12.078;2022-12-18T08:35:34;34.90;;;12.27;;
26082;SDS011;13848;49.018;12.078;2022-12-18T08:38:01;33.13;;;12.05;;
26082;SDS011;13848;49.018;12.078;2022-12-18T08:40:27;31.65;;;12.13;;
26082;SDS011;13848;49.018;12.078;2022-12-18T08:42:52;28.38;;;11.00;;
26082;SDS011;13848;49.018;12.078;2022-12-18T08:45:18;29.33;;;11.50;;
26082;SDS011;13848;49.018;12.078;2022-12-18T08:47:44;32.00;;;11.77;;
26082;SDS011;13848;49.018;12.078;2022-12-18T08:50:12;30.55;;;11.93;;
26082;SDS011;13848;49.018;12.078;2022-12-18T08:52:38;31.90;;;11.98;;
26082;SDS011;13848;49.018;12.078;2022-12-18T08:55:04;32.40;;;10.88;;
26082;SDS011;13848;49.018;12.078;2022-12-18T08:57:31;34.85;;;12.25;;
26082;SDS011;13848;49.018;12.078;2022-12-18T08:59:57;27.60;;;11.13;;
26082;SDS011;13848;49.018;12.078;2022-12-18T09:02:22;27.48;;;11.07;;
26082;SDS011;13848;49.018;12.078;2022-12-18T09:04:48;30.13;;;11.57;;
26082;SDS011;13848;49.018;12.078;2022-12-18T09:07:16;32.03;;;12.00;;
26082;SDS011;13848;49.018;12.078;2022-12-18T09:09:42;29.25;;;12.15;;
26082;SDS011;13848;49.018;12.078;2022-12-18T09:12:08;27.70;;;11.20;;
26082;SDS011;13848;49.018;12.078;2022-12-18T09:14:34;28.65;;;11.60;;
26082;SDS011;13848;49.018;12.078;2022-12-18T09:17:01;32.88;;;12.90;;
26082;SDS011;13848;49.018;12.078;2022-12-18T09:19:27;35.30;;;13.93;;
26082;SDS011;13848;49.018;12.078;2022-12-18T09:21:53;30.20;;;12.73;;
26082;SDS011;13848;49.018;12.078;2022-12-18T09:24:21;40.28;;;13.90;;
26082;SDS011;13848;49.018;12.078;2022-12-18T09:26:47;33.85;;;12.50;;
26082;SDS011;13848;49.018;12.078;2022-12-18T09:29:13;31.27;;;12.30;;
26082;SDS011;13848;49.018;12.078;2022-12-18T09:31:39;28.27;;;11.77;;
26082;SDS011;13848;49.018;12.078;2022-12-18T09:34:05;32.65;;;12.48;;
26082;SDS011;13848;49.018;12.078;2022-12-18T09:36:32;31.30;;;10.90;;
26082;SDS011;13848;49.018;12.078;2022-12-18T09:38:57;31.08;;;11.73;;
26082;SDS011;13848;49.018;12.078;2022-12-18T09:41:31;31.38;;;11.57;;
26082;SDS011;13848;49.018;12.078;2022-12-18T09:44:05;27.83;;;12.02;;
26082;SDS011;13848;49.018;12.078;2022-12-18T09:46:40;33.45;;;11.90;;
26082;SDS011;13848;49.018;12.078;2022-12-18T09:49:11;29.33;;;11.88;;
26082;SDS011;13848;49.018;12.078;2022-12-18T09:51:40;31.60;;;11.00;;
26082;SDS011;13848;49.018;12.078;2022-12-18T09:54:11;32.33;;;12.40;;
26082;SDS011;13848;49.018;12.078;2022-12-18T09:56:41;37.97;;;13.93;;
26082;SDS011;13848;49.018;12.078;2022-12-18T09:59:14;30.15;;;12.48;;
26082;SDS011;13848;49.018;12.078;2022-12-18T10:01:44;36.75;;;12.98;;
26082;SDS011;13848;49.018;12.078;2022-12-18T10:04:10;36.10;;;13.45;;
26082;SDS011;13848;49.018;12.078;2022-12-18T10:06:37;42.60;;;15.18;;
26082;SDS011;13848;49.018;12.078;2022-12-18T10:09:09;41.20;;;14.68;;
26082;SDS011;13848;49.018;12.078;2022-12-18T10:11:48;37.17;;;13.90;;
26082;SDS011;13848;49.018;12.078;2022-12-18T10:14:22;40.55;;;13.73;;
26082;SDS011;13848;49.018;12.078;2022-12-18T10:16:55;37.25;;;13.25;;
26082;SDS011;13848;49.018;12.078;2022-12-18T10:19:32;37.33;;;12.98;;
26082;SDS011;13848;49.018;12.078;2022-12-18T10:22:08;35.63;;;13.15;;
26082;SDS011;13848;49.018;12.078;2022-12-18T10:24:42;37.72;;;13.63;;
26082;SDS011;13848;49.018;12.078;2022-12-18T10:27:15;37.10;;;14.20;;
26082;SDS011;13848;49.018;12.078;2022-12-18T10:29:43;47.78;;;19.40;;
26082;SDS011;13848;49.018;12.078;2022-12-18T10:32:13;42.47;;;16.83;;
26082;SDS011;13848;49.018;12.078;2022-12-18T10:34:40;36.33;;;13.10;;
26082;SDS011;13848;49.018;12.078;2022-12-18T10:37:06;36.33;;;14.57;;
26082;SDS011;13848;49.018;12.078;2022-12-18T10:39:41;30.77;;;12.30;;
26082;SDS011;13848;49.018;12.078;2022-12-18T10:42:09;31.25;;;12.18;;
26082;SDS011;13848;49.018;12.078;2022-12-18T10:44:38;29.33;;;11.70;;
26082;SDS011;13848;49.018;12.078;2022-12-18T10:47:05;43.03;;;13.77;;
26082;SDS011;13848;49.018;12.078;2022-12-18T10:49:36;32.20;;;12.80;;
26082;SDS011;13848;49.018;12.078;2022-12-18T10:52:11;29.67;;;11.93;;
26082;SDS011;13848;49.018;12.078;2022-12-18T10:54:45;26.58;;;12.00;;
26082;SDS011;13848;49.018;12.078;2022-12-18T10:57:13;27.63;;;11.07;;
26082;SDS011;13848;49.018;12.078;2022-12-18T10:59:49;32.08;;;12.90;;
26082;SDS011;13848;49.018;12.078;2022-12-18T11:02:24;34.63;;;13.50;;
26082;SDS011;13848;49.018;12.078;2022-12-18T11:04:53;42.90;;;14.75;;
26082;SDS011;13848;49.018;12.078;2022-12-18T11:07:19;36.55;;;13.27;;
26082;SDS011;13848;49.018;12.078;2022-12-18T11:09:45;34.33;;;13.90;;
26082;SDS011;13848;49.018;12.078;2022-12-18T11:12:25;38.90;;;13.48;;
26082;SDS011;13848;49.018;12.078;2022-12-18T11:14:55;43.67;;;14.35;;
26082;SDS011;13848;49.018;12.078;2022-12-18T11:17:22;32.95;;;13.55;;
26082;SDS011;13848;49.018;12.078;2022-12-18T11:19:53;35.80;;;12.73;;
26082;SDS011;13848;49.018;12.078;2022-12-18T11:22:20;37.17;;;13.43;;
26082;SDS011;13848;49.018;12.078;2022-12-18T11:24:53;36.30;;;13.90;;
26082;SDS011;13848;49.018;12.078;2022-12-18T11:27:21;36.45;;;14.70;;
26082;SDS011;13848;49.018;12.078;2022-12-18T11:29:49;40.45;;;16.52;;
26082;SDS011;13848;49.018;12.078;2022-12-18T11:32:31;33.25;;;13.50;;
26082;SDS011;13848;49.018;12.078;2022-12-18T11:35:07;39.10;;;14.15;;
26082;SDS011;13848;49.018;12.078;2022-12-18T11:37:40;33.92;;;14.35;;
26082;SDS011;13848;49.018;12.078;2022-12-18T11:40:10;32.83;;;13.57;;
26082;SDS011;13848;49.018;12.078;2022-12-18T11:42:41;32.08;;;14.07;;
26082;SDS011;13848;49.018;12.078;2022-12-18T11:45:20;39.70;;;14.65;;
26082;SDS011;13848;49.018;12.078;2022-12-18T11:47:54;37.05;;;15.90;;
26082;SDS011;13848;49.018;12.078;2022-12-18T11:50:24;37.42;;;14.05;;
26082;SDS011;13848;49.018;12.078;2022-12-18T11:52:53;34.45;;;13.80;;
26082;SDS011;13848;49.018;12.078;2022-12-18T11:55:22;34.50;;;14.52;;
26082;SDS011;13848;49.018;12.078;2022-12-18T11:57:57;31.27;;;12.82;;
26082;SDS011;13848;49.018;12.078;2022-12-18T12:00:30;37.95;;;15.13;;
26082;SDS011;13848;49.018;12.078;2022-12-18T12:03:04;40.30;;;14.48;;
26082;SDS011;13848;49.018;12.078;2022-12-18T12:05:47;34.22;;;13.05;;
26082;SDS011;13848;49.018;12.078;2022-12-18T12:08:22;45.40;;;17.33;;
26082;SDS011;13848;49.018;12.078;2022-12-18T12:10:58;35.75;;;14.40;;
26082;SDS011;13848;49.018;12.078;2022-12-18T12:13:36;30.50;;;13.70;;
26082;SDS011;13848;49.018;12.078;2022-12-18T12:16:14;31.50;;;12.48;;
26082;SDS011;13848;49.018;12.078;2022-12-18T12:18:47;38.55;;;14.63;;
26082;SDS011;13848;49.018;12.078;2022-12-18T12:21:26;48.45;;;15.45;;
26082;SDS011;13848;49.018;12.078;2022-12-18T12:24:01;32.97;;;12.70;;
26082;SDS011;13848;49.018;12.078;2022-12-18T12:26:35;29.30;;;12.27;;
26082;SDS011;13848;49.018;12.078;2022-12-18T12:29:13;33.13;;;12.15;;
26082;SDS011;13848;49.018;12.078;2022-12-18T12:31:59;32.15;;;13.25;;
26082;SDS011;13848;49.018;12.078;2022-12-18T12:34:39;33.85;;;13.48;;
26082;SDS011;13848;49.018;12.078;2022-12-18T12:37:19;35.05;;;13.82;;
26082;SDS011;13848;49.018;12.078;2022-12-18T12:39:54;30.85;;;13.77;;
26082;SDS011;13848;49.018;12.078;2022-12-18T12:42:23;33.17;;;12.70;;
26082;SDS011;13848;49.018;12.078;2022-12-18T12:44:56;33.67;;;12.95;;
26082;SDS011;13848;49.018;12.078;2022-12-18T12:47:28;36.03;;;12.60;;
26082;SDS011;13848;49.018;12.078;2022-12-18T12:50:01;31.40;;;12.80;;
26082;SDS011;13848;49.018;12.078;2022-12-18T12:52:32;31.00;;;13.13;;
26082;SDS011;13848;49.018;12.078;2022-12-18T12:55:04;33.65;;;13.45;;
26082;SDS011;13848;49.018;12.078;2022-12-18T12:57:38;29.50;;;13.05;;
26082;SDS011;13848;49.018;12.078;2022-12-18T13:00:07;35.33;;;11.90;;
26082;SDS011;13848;49.018;12.078;2022-12-18T13:02:39;37.25;;;14.38;;
26082;SDS011;13848;49.018;12.078;2022-12-18T13:05:16;34.25;;;13.73;;
26082;SDS011;13848;49.018;12.078;2022-12-18T13:07:50;31.17;;;13.85;;
26082;SDS011;13848;49.018;12.078;2022-12-18T13:10:24;30.75;;;11.82;;
26082;SDS011;13848;49.018;12.078;2022-12-18T13:12:58;33.33;;;13.02;;
26082;SDS011;13848;49.018;12.078;2022-12-18T13:15:30;30.60;;;13.18;;
26082;SDS011;13848;49.018;12.078;2022-12-18T13:18:03;32.78;;;13.38;;
26082;SDS011;13848;49.018;12.078;2022-12-18T13:20:41;35.95;;;12.85;;
26082;SDS011;13848;49.018;12.078;2022-12-18T13:23:26;33.78;;;13.60;;
26082;SDS011;13848;49.018;12.078;2022-12-18T13:25:55;26.25;;;10.70;;
26082;SDS011;13848;49.018;12.078;2022-12-18T13:28:22;29.65;;;12.60;;
26082;SDS011;13848;49.018;12.078;2022-12-18T13:31:03;26.42;;;11.57;;
26082;SDS011;13848;49.018;12.078;2022-12-18T13:36:16;35.28;;;12.70;;
26082;SDS011;13848;49.018;12.078;2022-12-18T13:41:50;31.92;;;13.05;;
26082;SDS011;13848;49.018;12.078;2022-12-18T13:44:31;31.80;;;13.85;;
26082;SDS011;13848;49.018;12.078;2022-12-18T13:46:58;31.13;;;12.02;;
26082;SDS011;13848;49.018;12.078;2022-12-18T13:49:26;29.40;;;12.95;;
26082;SDS011;13848;49.018;12.078;2022-12-18T13:52:02;33.55;;;13.25;;
26082;SDS011;13848;49.018;12.078;2022-12-18T13:54:40;31.23;;;12.85;;
26082;SDS011;13848;49.018;12.078;2022-12-18T13:57:23;39.35;;;14.13;;
26082;SDS011;13848;49.018;12.078;2022-12-18T13:59:52;30.77;;;13.05;;
26082;SDS011;13848;49.018;12.078;2022-12-18T14:02:20;39.13;;;14.00;;
26082;SDS011;13848;49.018;12.078;2022-12-18T14:04:48;35.88;;;13.70;;
26082;SDS011;13848;49.018;12.078;2022-12-18T14:07:17;32.58;;;13.75;;
26082;SDS011;13848;49.018;12.078;2022-12-18T14:09:45;35.45;;;14.70;;
26082;SDS011;13848;49.018;12.078;2022-12-18T14:12:14;43.60;;;15.55;;
26082;SDS011;13848;49.018;12.078;2022-12-18T14:14:43;39.40;;;15.25;;
26082;SDS011;13848;49.018;12.078;2022-12-18T14:17:11;31.85;;;14.43;;
26082;SDS011;13848;49.018;12.078;2022-12-18T14:19:40;33.90;;;13.95;;
26082;SDS011;13848;49.018;12.078;2022-12-18T14:22:11;38.83;;;14.38;;
26082;SDS011;13848;49.018;12.078;2022-12-18T14:24:43;33.67;;;13.88;;
26082;SDS011;13848;49.018;12.078;2022-12-18T14:27:12;33.42;;;13.95;;